Time;durP1;ratioP1;P1;durP2;ratioP2;P2;SDS_P1;SDS_P2;PMS_P1;PMS_P2;Temp;Humidity;BMP_temperature;BMP_pressure;BME280_temperature;BME280_humidity;BME280_pressure;Samples;Min_cycle;Max_cycle;Signal;HPM_P1;HPM_P2
2022/10/28 00:00:34;;;;;;;18.73;11.30;;;8.10;99.90;;;;;;4178219;28;20052;-63
2022/10/28 00:02:37;;;;;;;19.93;11.00;;;8.10;99.90;;;;;;4179016;28;20033;-63
2022/10/28 00:04:38;;;;;;;18.53;10.43;;;8.00;99.90;;;;;;4159961;28;20038;-65
2022/10/28 00:06:39;;;;;;;20.43;10.47;;;8.00;99.90;;;;;;4179754;28;20029;-67
2022/10/28 00:08:40;;;;;;;19.30;11.57;;;7.90;99.90;;;;;;4177344;28;20087;-67
2022/10/28 00:10:41;;;;;;;21.73;10.67;;;7.90;99.90;;;;;;4178265;28;20087;-63
2022/10/28 00:12:42;;;;;;;21.67;11.97;;;7.80;99.90;;;;;;4177471;28;20473;-67
2022/10/28 00:14:43;;;;;;;17.67;10.70;;;7.80;99.90;;;;;;4178959;28;20025;-67
2022/10/28 00:16:44;;;;;;;19.03;9.97;;;7.80;99.90;;;;;;4177347;28;20083;-66
2022/10/28 00:18:47;;;;;;;18.93;10.13;;;7.80;99.90;;;;;;4178636;28;20083;-67
2022/10/28 00:20:48;;;;;;;17.30;9.90;;;7.80;99.90;;;;;;4178066;28;20116;-67
2022/10/28 00:22:49;;;;;;;17.93;9.87;;;7.70;99.90;;;;;;4177896;28;20041;-67
2022/10/28 00:24:50;;;;;;;21.00;10.77;;;7.70;99.90;;;;;;4177905;28;20441;-68
2022/10/28 00:26:51;;;;;;;18.60;10.80;;;7.70;99.90;;;;;;4177942;28;20098;-63
2022/10/28 00:28:55;;;;;;;18.67;10.90;;;7.80;99.90;;;;;;4178634;28;20551;-67
2022/10/28 00:31:06;;;;;;;18.10;10.87;;;7.70;99.90;;;;;;4177718;28;20049;-68
2022/10/28 00:33:07;;;;;;;16.87;10.53;;;7.70;99.90;;;;;;4177583;28;20037;-63
2022/10/28 00:35:08;;;;;;;20.70;10.60;;;7.70;99.90;;;;;;4177713;28;20523;-68
2022/10/28 00:37:09;;;;;;;19.40;10.70;;;7.60;99.90;;;;;;4179284;28;20099;-68
2022/10/28 00:39:19;;;;;;;16.77;10.90;;;7.60;99.90;;;;;;4177295;28;20041;-67
2022/10/28 00:41:23;;;;;;;23.38;11.30;;;7.60;99.90;;;;;;4178538;28;20428;-65
2022/10/28 00:43:58;;;;;;;20.77;11.53;;;7.50;99.90;;;;;;4177140;28;20497;-68
2022/10/28 00:46:00;;;;;;;20.10;11.10;;;7.60;99.90;;;;;;4079644;29;20475;-67
2022/10/28 00:48:03;;;;;;;19.87;11.67;;;7.50;99.90;;;;;;4159509;28;20084;-65
2022/10/28 00:50:17;;;;;;;22.33;11.03;;;7.50;99.90;;;;;;4160752;28;20564;-67
2022/10/28 00:52:23;;;;;;;23.03;11.37;;;7.50;99.90;;;;;;4173509;28;20032;-67
2022/10/28 00:54:25;;;;;;;20.20;11.60;;;7.50;99.90;;;;;;4178347;28;20091;-66
2022/10/28 00:56:32;;;;;;;19.33;11.10;;;7.40;99.90;;;;;;4176794;28;20106;-64
2022/10/28 00:58:33;;;;;;;20.33;11.20;;;7.40;99.90;;;;;;4178633;28;20045;-66
2022/10/28 01:00:34;;;;;;;19.23;11.33;;;7.40;99.90;;;;;;4176814;28;20552;-62
2022/10/28 01:02:46;;;;;;;22.20;12.13;;;7.30;99.90;;;;;;4178522;28;20071;-64
2022/10/28 01:04:48;;;;;;;18.80;11.30;;;7.40;99.90;;;;;;4177230;28;20090;-67
2022/10/28 01:06:50;;;;;;;19.27;11.73;;;7.30;99.90;;;;;;4178645;28;20111;-63
2022/10/28 01:08:51;;;;;;;16.43;11.23;;;7.30;99.90;;;;;;4175990;28;20066;-62
2022/10/28 01:11:29;;;;;;;18.23;10.77;;;7.20;99.90;;;;;;4178266;28;20037;-63
2022/10/28 01:14:04;;;;;;;19.80;10.87;;;7.20;99.90;;;;;;4175636;28;20044;-64
2022/10/28 01:16:50;;;;;;;19.47;11.73;;;7.20;99.90;;;;;;4173154;28;20074;-64
2022/10/28 01:19:12;;;;;;;21.17;10.90;;;7.20;99.90;;;;;;4094640;29;20535;-67
2022/10/28 01:21:34;;;;;;;19.90;10.47;;;7.20;99.90;;;;;;4078645;29;20031;-63
2022/10/28 01:24:10;;;;;;;18.87;10.80;;;7.10;99.90;;;;;;4106371;28;20041;-62
2022/10/28 01:26:26;;;;;;;22.40;11.23;;;7.10;99.90;;;;;;4160074;28;20103;-63
2022/10/28 01:28:53;;;;;;;17.07;10.47;;;7.10;99.90;;;;;;4161735;28;20456;-63
2022/10/28 01:31:12;;;;;;;16.67;10.13;;;7.10;99.90;;;;;;4142545;28;20050;-64
2022/10/28 01:33:25;;;;;;;19.07;10.67;;;7.10;99.90;;;;;;4161367;28;20497;-62
2022/10/28 01:35:52;;;;;;;17.30;10.50;;;7.10;99.90;;;;;;4160633;28;20033;-66
2022/10/28 01:37:57;;;;;;;15.73;9.57;;;7.10;99.90;;;;;;4150829;28;20041;-62
2022/10/28 01:40:09;;;;;;;16.93;10.97;;;7.00;99.90;;;;;;4160260;28;20568;-63
2022/10/28 01:42:29;;;;;;;19.77;10.63;;;7.00;99.90;;;;;;4166497;28;20107;-66
2022/10/28 01:44:41;;;;;;;20.48;11.20;;;7.00;99.90;;;;;;4176422;28;20049;-67
2022/10/28 01:47:03;;;;;;;15.37;9.57;;;7.00;99.90;;;;;;4177010;28;20041;-63
2022/10/28 01:49:13;;;;;;;16.40;10.67;;;6.90;99.90;;;;;;4176168;28;20111;-63
2022/10/28 01:51:44;;;;;;;16.20;8.70;;;6.90;99.90;;;;;;4177371;28;20045;-64
2022/10/28 01:53:50;;;;;;;15.73;10.03;;;6.90;99.90;;;;;;4176251;28;20041;-64
2022/10/28 01:55:54;;;;;;;18.00;10.67;;;6.80;99.90;;;;;;4179519;28;20511;-66
2022/10/28 01:57:58;;;;;;;17.93;10.23;;;6.70;99.90;;;;;;4179898;28;20099;-65
2022/10/28 02:00:00;;;;;;;18.23;11.07;;;6.70;99.90;;;;;;4180449;28;20070;-62
2022/10/28 02:02:01;;;;;;;17.23;10.33;;;6.70;99.90;;;;;;4179582;28;20107;-63
2022/10/28 02:04:02;;;;;;;20.83;10.83;;;6.70;99.90;;;;;;4180502;28;20102;-63
2022/10/28 02:06:10;;;;;;;16.57;10.30;;;6.60;99.90;;;;;;4180058;28;20580;-62
2022/10/28 02:08:17;;;;;;;19.40;11.13;;;6.60;99.90;;;;;;4181280;28;20423;-63
2022/10/28 02:10:21;;;;;;;17.17;9.93;;;6.60;99.90;;;;;;4179529;28;20037;-63
2022/10/28 02:12:25;;;;;;;16.50;9.43;;;6.60;99.90;;;;;;4181167;28;20033;-63
2022/10/28 02:14:39;;;;;;;17.20;10.90;;;6.60;99.90;;;;;;4179933;28;20880;-63
2022/10/28 02:16:56;;;;;;;17.60;10.07;;;6.60;99.90;;;;;;4179555;28;20041;-63
2022/10/28 02:19:09;;;;;;;17.97;10.77;;;6.50;99.90;;;;;;4178994;28;20071;-63
2022/10/28 02:21:44;;;;;;;17.27;10.23;;;6.50;99.90;;;;;;4179800;28;20095;-63
2022/10/28 02:23:51;;;;;;;14.90;9.97;;;6.50;99.90;;;;;;4178823;28;20090;-62
2022/10/28 02:26:19;;;;;;;18.07;10.03;;;6.40;99.90;;;;;;4180122;28;20416;-61
2022/10/28 02:28:48;;;;;;;17.00;10.57;;;6.40;99.90;;;;;;4180235;28;20825;-64
2022/10/28 02:31:12;;;;;;;15.97;10.40;;;6.40;99.90;;;;;;4178027;28;20048;-62
2022/10/28 02:33:26;;;;;;;15.07;9.07;;;6.40;99.90;;;;;;4179138;28;20041;-64
2022/10/28 02:35:59;;;;;;;13.33;9.00;;;6.40;99.90;;;;;;4178561;28;20090;-62
2022/10/28 02:38:06;;;;;;;14.67;9.10;;;6.40;99.90;;;;;;4175852;28;20045;-64
2022/10/28 02:40:16;;;;;;;13.17;9.07;;;6.40;99.90;;;;;;4178332;28;20095;-62
2022/10/28 02:42:39;;;;;;;18.70;9.47;;;6.40;99.90;;;;;;4179962;28;20048;-64
2022/10/28 02:44:48;;;;;;;15.00;8.93;;;6.30;99.90;;;;;;4160980;28;20038;-63
2022/10/28 02:46:50;;;;;;;13.87;8.53;;;6.20;99.90;;;;;;4179763;28;20056;-63
2022/10/28 02:49:04;;;;;;;13.03;7.43;;;6.20;99.90;;;;;;4179329;28;20033;-63
2022/10/28 02:51:28;;;;;;;21.37;8.60;;;6.20;99.90;;;;;;4179288;28;20126;-63
2022/10/28 02:53:36;;;;;;;14.03;8.53;;;6.20;99.90;;;;;;4179058;28;20099;-64
2022/10/28 02:55:42;;;;;;;12.90;8.73;;;6.20;99.90;;;;;;4179501;28;20074;-64
2022/10/28 02:57:48;;;;;;;13.77;8.37;;;6.10;99.90;;;;;;4179054;28;20099;-63
2022/10/28 03:00:06;;;;;;;16.00;8.60;;;6.20;99.90;;;;;;4179258;28;20493;-63
2022/10/28 03:02:08;;;;;;;13.20;8.37;;;6.10;99.90;;;;;;4178531;28;20079;-63
2022/10/28 03:04:09;;;;;;;14.03;8.23;;;6.10;99.90;;;;;;4179456;28;20087;-63
2022/10/28 03:06:10;;;;;;;12.63;7.83;;;6.10;99.90;;;;;;4178503;28;20055;-65
2022/10/28 03:08:11;;;;;;;16.87;8.57;;;6.10;99.90;;;;;;4180333;28;20025;-63
2022/10/28 03:10:13;;;;;;;13.23;8.03;;;6.10;99.90;;;;;;4178597;28;20083;-66
2022/10/28 03:12:14;;;;;;;13.47;7.80;;;6.20;99.90;;;;;;4179765;28;20049;-62
2022/10/28 03:14:15;;;;;;;19.23;9.57;;;6.20;99.90;;;;;;4178984;28;20021;-64
2022/10/28 03:16:16;;;;;;;12.53;8.30;;;6.10;99.90;;;;;;4179422;28;20045;-67
2022/10/28 03:18:17;;;;;;;15.10;8.70;;;6.10;99.90;;;;;;4178867;28;20082;-64
2022/10/28 03:20:18;;;;;;;14.80;8.50;;;6.10;99.90;;;;;;4178031;28;20087;-63
2022/10/28 03:22:19;;;;;;;14.40;8.13;;;6.10;99.90;;;;;;4178385;28;20029;-62
2022/10/28 03:24:20;;;;;;;14.53;8.10;;;6.10;99.90;;;;;;4179134;28;20029;-63
2022/10/28 03:26:21;;;;;;;13.70;8.90;;;6.00;99.90;;;;;;4178073;28;20382;-63
2022/10/28 03:28:23;;;;;;;14.57;9.03;;;6.10;99.90;;;;;;4179073;28;20371;-66
2022/10/28 03:30:24;;;;;;;14.60;7.97;;;6.00;99.90;;;;;;4179609;28;20033;-63
2022/10/28 03:32:25;;;;;;;15.07;7.67;;;6.00;99.90;;;;;;4178129;28;20457;-65
2022/10/28 03:34:26;;;;;;;13.57;8.50;;;5.90;99.90;;;;;;4178934;28;20049;-63
2022/10/28 03:36:27;;;;;;;16.00;8.47;;;5.90;99.90;;;;;;4177799;28;20368;-62
2022/10/28 03:38:28;;;;;;;12.40;8.40;;;5.90;99.90;;;;;;4179766;28;20033;-66
2022/10/28 03:40:29;;;;;;;13.73;7.73;;;5.90;99.90;;;;;;4177640;28;20103;-62
2022/10/28 03:42:32;;;;;;;15.30;9.07;;;5.90;99.90;;;;;;4179248;28;20033;-62
2022/10/28 03:44:34;;;;;;;15.33;7.63;;;5.90;99.90;;;;;;4177856;28;20094;-63
2022/10/28 03:46:35;;;;;;;14.00;7.47;;;5.90;99.90;;;;;;4179602;28;20041;-62
2022/10/28 03:48:36;;;;;;;13.53;8.67;;;5.90;99.90;;;;;;4178620;28;20078;-66
2022/10/28 03:50:37;;;;;;;12.50;8.47;;;5.90;99.90;;;;;;4179050;28;20025;-67
2022/10/28 03:52:38;;;;;;;17.67;10.70;;;5.90;99.90;;;;;;4160208;28;20108;-63
2022/10/28 03:54:39;;;;;;;16.20;9.53;;;5.90;99.90;;;;;;4178050;28;20045;-67
2022/10/28 03:56:40;;;;;;;16.73;9.90;;;5.80;99.90;;;;;;4178252;28;20456;-65
2022/10/28 03:58:41;;;;;;;13.77;7.77;;;5.80;99.90;;;;;;4178557;28;20078;-63
2022/10/28 04:00:42;;;;;;;12.03;8.37;;;5.80;99.90;;;;;;4178660;28;20041;-68
2022/10/28 04:02:51;;;;;;;13.67;8.20;;;5.80;99.90;;;;;;4177288;28;20391;-63
2022/10/28 04:04:52;;;;;;;17.47;8.03;;;5.70;99.90;;;;;;4179210;28;20114;-63
2022/10/28 04:06:53;;;;;;;13.13;7.77;;;5.70;99.90;;;;;;4178291;28;20025;-67
2022/10/28 04:08:54;;;;;;;13.30;7.83;;;5.70;99.90;;;;;;4179431;28;20095;-65
2022/10/28 04:10:55;;;;;;;11.07;7.13;;;5.70;99.90;;;;;;4177668;28;20044;-67
2022/10/28 04:13:01;;;;;;;13.13;7.90;;;5.70;99.90;;;;;;4178226;28;20045;-67
2022/10/28 04:15:02;;;;;;;14.23;8.43;;;5.60;99.90;;;;;;4177769;28;20060;-67
2022/10/28 04:17:03;;;;;;;15.87;8.83;;;5.70;99.90;;;;;;4176804;28;20057;-64
2022/10/28 04:19:04;;;;;;;12.10;7.87;;;5.70;99.90;;;;;;4176951;28;20068;-62
2022/10/28 04:21:05;;;;;;;20.27;7.87;;;5.60;99.90;;;;;;4177632;28;20040;-63
2022/10/28 04:23:10;;;;;;;11.63;7.80;;;5.50;99.90;;;;;;4176474;28;20077;-66
2022/10/28 04:25:11;;;;;;;14.57;8.23;;;5.50;99.90;;;;;;4176808;28;20086;-62
2022/10/28 04:27:12;;;;;;;15.73;7.50;;;5.50;99.90;;;;;;4177771;28;20094;-62
2022/10/28 04:29:13;;;;;;;16.37;8.67;;;5.50;99.90;;;;;;4177032;28;20100;-65
2022/10/28 04:31:14;;;;;;;12.33;8.20;;;5.40;99.90;;;;;;4176504;28;20497;-68
2022/10/28 04:33:15;;;;;;;18.90;8.57;;;5.40;99.90;;;;;;4159313;28;20046;-66
2022/10/28 04:35:16;;;;;;;13.77;8.70;;;5.40;99.90;;;;;;4178335;28;20029;-65
2022/10/28 04:37:17;;;;;;;9.87;6.80;;;5.40;99.90;;;;;;4176849;28;20086;-63
2022/10/28 04:39:18;;;;;;;7.47;5.27;;;5.40;99.90;;;;;;4177446;28;20040;-63
2022/10/28 04:41:19;;;;;;;8.30;6.23;;;5.20;99.90;;;;;;4177438;28;20070;-63
2022/10/28 04:43:21;;;;;;;9.63;6.43;;;5.20;99.90;;;;;;4178680;28;20431;-63
2022/10/28 04:45:22;;;;;;;14.03;5.90;;;5.20;99.90;;;;;;4177560;28;20481;-63
2022/10/28 04:47:23;;;;;;;8.90;5.97;;;5.10;99.90;;;;;;4177798;28;20025;-63
2022/10/28 04:49:24;;;;;;;8.93;6.47;;;5.00;99.90;;;;;;4176680;28;20090;-63
2022/10/28 04:51:25;;;;;;;16.60;7.47;;;4.90;99.90;;;;;;4178563;28;20037;-63
2022/10/28 04:53:26;;;;;;;16.63;8.07;;;4.80;99.90;;;;;;4176283;28;20041;-63
2022/10/28 04:55:27;;;;;;;34.73;9.03;;;4.70;99.90;;;;;;4177977;28;20044;-64
2022/10/28 04:57:28;;;;;;;18.97;8.07;;;4.70;99.90;;;;;;4177116;28;20029;-63
2022/10/28 04:59:30;;;;;;;19.07;9.47;;;4.60;99.90;;;;;;4177705;28;20340;-64
2022/10/28 05:01:31;;;;;;;21.13;9.07;;;4.60;99.90;;;;;;4177485;28;20079;-67
2022/10/28 05:03:32;;;;;;;22.03;11.40;;;4.50;99.90;;;;;;4177462;28;20079;-69
2022/10/28 05:05:33;;;;;;;19.83;11.07;;;4.40;99.90;;;;;;4177494;28;20033;-64
2022/10/28 05:07:34;;;;;;;20.40;9.53;;;4.40;99.90;;;;;;4177463;28;20286;-67
2022/10/28 05:09:36;;;;;;;17.97;9.73;;;4.40;99.90;;;;;;4176332;28;20115;-69
2022/10/28 05:11:37;;;;;;;25.43;10.87;;;4.30;99.90;;;;;;4176055;28;20336;-62
2022/10/28 05:13:38;;;;;;;25.63;11.37;;;4.30;99.90;;;;;;4177113;28;20045;-62
2022/10/28 05:15:39;;;;;;;25.70;11.47;;;4.40;99.90;;;;;;4175697;28;20701;-65
2022/10/28 05:17:43;;;;;;;21.90;11.97;;;4.50;99.90;;;;;;4177218;28;20040;-66
2022/10/28 05:19:44;;;;;;;20.90;11.17;;;4.60;99.90;;;;;;4176845;28;20041;-62
2022/10/28 05:21:46;;;;;;;24.37;11.10;;;4.80;99.90;;;;;;4178123;28;20029;-63
2022/10/28 05:23:47;;;;;;;25.70;11.67;;;4.90;99.90;;;;;;4175789;28;20343;-61
2022/10/28 05:25:49;;;;;;;25.10;12.07;;;5.20;99.90;;;;;;4176315;28;20037;-63
2022/10/28 05:27:51;;;;;;;20.57;12.03;;;5.40;99.90;;;;;;4175877;28;20079;-63
2022/10/28 05:29:52;;;;;;;22.53;12.10;;;5.60;99.90;;;;;;4176635;28;21007;-65
2022/10/28 05:31:53;;;;;;;26.90;13.03;;;5.90;99.90;;;;;;4176613;28;20041;-65
2022/10/28 05:33:54;;;;;;;21.73;12.40;;;6.10;99.90;;;;;;4176302;28;20439;-64
2022/10/28 05:35:58;;;;;;;30.30;12.77;;;6.20;99.90;;;;;;4177420;28;20025;-64
2022/10/28 05:37:59;;;;;;;32.20;13.37;;;6.40;99.90;;;;;;4175461;28;20044;-64
2022/10/28 05:40:00;;;;;;;21.83;11.53;;;6.70;99.90;;;;;;4176303;28;20049;-63
2022/10/28 05:42:01;;;;;;;25.00;12.13;;;6.90;99.90;;;;;;4175797;28;20083;-64
2022/10/28 05:44:02;;;;;;;29.23;13.33;;;7.20;99.90;;;;;;4177401;28;20037;-63
2022/10/28 05:46:03;;;;;;;24.30;11.97;;;7.40;99.90;;;;;;4176538;28;20075;-64
2022/10/28 05:48:06;;;;;;;27.30;12.70;;;7.70;99.90;;;;;;4177062;28;20029;-63
2022/10/28 05:50:07;;;;;;;36.53;13.60;;;7.90;99.90;;;;;;4176433;28;20091;-67
2022/10/28 05:52:08;;;;;;;21.07;11.43;;;8.30;99.90;;;;;;4177384;28;20045;-64
2022/10/28 05:54:12;;;;;;;26.70;10.73;;;8.40;99.90;;;;;;4175765;28;20151;-62
2022/10/28 05:56:13;;;;;;;32.37;12.17;;;8.60;99.90;;;;;;4170952;28;20037;-62
2022/10/28 05:58:15;;;;;;;27.73;11.73;;;8.60;99.90;;;;;;4176115;28;20071;-66
2022/10/28 06:00:19;;;;;;;24.47;11.83;;;8.60;99.90;;;;;;4176059;28;20075;-67
2022/10/28 06:02:20;;;;;;;19.23;10.37;;;8.50;99.90;;;;;;4175621;28;20485;-65
2022/10/28 06:04:21;;;;;;;27.57;12.60;;;8.70;99.90;;;;;;4176256;28;20087;-63
2022/10/28 06:06:23;;;;;;;30.03;13.90;;;9.00;99.90;;;;;;4159231;28;20025;-63
2022/10/28 06:08:24;;;;;;;25.10;16.00;;;9.20;99.90;;;;;;4176767;28;20363;-68
2022/10/28 06:10:25;;;;;;;27.83;14.17;;;9.40;99.90;;;;;;4177183;28;20491;-66
2022/10/28 06:12:26;;;;;;;26.50;15.63;;;9.60;99.90;;;;;;4158168;28;20053;-63
2022/10/28 06:14:27;;;;;;;30.73;17.57;;;9.70;99.90;;;;;;4177497;28;20063;-64
2022/10/28 06:16:28;;;;;;;35.10;17.80;;;9.60;99.90;;;;;;4176188;28;20076;-64
2022/10/28 06:18:29;;;;;;;30.93;15.87;;;9.60;99.90;;;;;;4177263;28;20195;-64
2022/10/28 06:20:31;;;;;;;23.67;14.83;;;9.50;99.90;;;;;;4176385;28;20037;-65
2022/10/28 06:22:32;;;;;;;33.17;17.27;;;9.60;99.90;;;;;;4177343;28;20017;-63
2022/10/28 06:24:33;;;;;;;29.07;15.90;;;9.60;99.90;;;;;;4175134;28;20036;-66
2022/10/28 06:26:34;;;;;;;27.50;14.97;;;9.50;99.90;;;;;;4176527;28;20053;-66
2022/10/28 06:28:35;;;;;;;30.73;15.53;;;9.50;99.90;;;;;;4175568;28;20048;-63
2022/10/28 06:30:36;;;;;;;36.40;17.20;;;9.80;99.90;;;;;;4176866;28;20477;-66
2022/10/28 06:32:37;;;;;;;33.53;15.70;;;9.80;99.90;;;;;;4176151;28;20041;-62
2022/10/28 06:34:39;;;;;;;38.97;17.43;;;9.80;99.90;;;;;;4176007;28;20436;-63
2022/10/28 06:36:40;;;;;;;40.17;16.63;;;10.10;99.90;;;;;;4176798;28;20059;-63
2022/10/28 06:38:41;;;;;;;37.03;15.97;;;10.30;99.90;;;;;;4176701;28;20033;-64
2022/10/28 06:40:42;;;;;;;29.87;15.73;;;10.00;99.90;;;;;;4177417;28;20029;-62
2022/10/28 06:42:43;;;;;;;38.27;15.10;;;9.60;99.90;;;;;;4179079;28;20178;-65
2022/10/28 06:44:45;;;;;;;29.00;15.60;;;9.40;99.90;;;;;;4178947;28;20049;-64
2022/10/28 06:46:46;;;;;;;29.57;15.10;;;9.10;99.90;;;;;;4177699;28;20103;-64
2022/10/28 06:48:47;;;;;;;31.43;15.43;;;9.00;99.90;;;;;;4179961;28;20067;-63
2022/10/28 06:50:48;;;;;;;42.03;17.53;;;8.90;99.90;;;;;;4178560;28;20075;-65
2022/10/28 06:52:50;;;;;;;34.60;17.87;;;8.70;99.90;;;;;;4180077;28;20567;-64
2022/10/28 06:54:51;;;;;;;45.10;18.70;;;8.70;99.90;;;;;;4177442;28;20053;-63
2022/10/28 06:56:52;;;;;;;51.07;21.63;;;8.70;99.90;;;;;;4179352;28;20094;-64
2022/10/28 06:58:54;;;;;;;50.20;23.67;;;8.90;99.90;;;;;;4178239;28;20024;-64
2022/10/28 07:00:55;;;;;;;60.90;26.30;;;9.10;99.90;;;;;;4179455;28;20029;-64
2022/10/28 07:02:56;;;;;;;54.57;24.67;;;9.10;99.90;;;;;;4178315;28;20021;-63
2022/10/28 07:04:57;;;;;;;43.37;22.23;;;8.90;99.90;;;;;;4178904;28;20037;-63
2022/10/28 07:06:59;;;;;;;56.53;24.23;;;8.90;99.90;;;;;;4179343;28;20033;-64
2022/10/28 07:09:00;;;;;;;51.73;24.07;;;8.70;99.90;;;;;;4179235;28;20029;-65
2022/10/28 07:11:01;;;;;;;59.33;25.40;;;8.60;99.90;;;;;;4179478;28;20079;-65
2022/10/28 07:13:03;;;;;;;49.70;23.40;;;8.60;99.90;;;;;;4177096;28;20098;-64
2022/10/28 07:15:04;;;;;;;53.30;23.93;;;8.80;99.90;;;;;;4178589;28;20495;-63
2022/10/28 07:17:05;;;;;;;44.37;23.37;;;9.20;99.90;;;;;;4178493;28;20058;-63
2022/10/28 07:19:07;;;;;;;45.63;19.70;;;9.70;99.90;;;;;;4179621;28;20029;-64
2022/10/28 07:21:08;;;;;;;30.27;16.90;;;10.10;99.90;;;;;;4177045;28;20045;-64
2022/10/28 07:23:10;;;;;;;27.20;15.03;;;10.30;99.90;;;;;;4178612;28;20029;-63
2022/10/28 07:25:11;;;;;;;23.23;14.60;;;10.40;99.90;;;;;;4177159;28;20448;-63
2022/10/28 07:27:12;;;;;;;33.33;15.17;;;10.40;99.90;;;;;;4179505;28;20037;-68
2022/10/28 07:29:14;;;;;;;26.17;15.00;;;10.50;99.90;;;;;;4178216;28;20029;-64
2022/10/28 07:31:16;;;;;;;25.07;13.93;;;10.50;99.90;;;;;;4178846;28;20037;-67
2022/10/28 07:33:17;;;;;;;18.30;11.13;;;10.60;99.90;;;;;;4178401;28;20444;-67
2022/10/28 07:35:18;;;;;;;19.40;12.53;;;10.50;99.90;;;;;;4167424;28;20397;-64
2022/10/28 07:37:19;;;;;;;21.90;12.87;;;10.30;99.90;;;;;;4178575;28;20059;-64
2022/10/28 07:39:21;;;;;;;21.33;13.40;;;10.10;99.90;;;;;;4175984;28;20576;-63
2022/10/28 07:41:22;;;;;;;18.67;11.47;;;10.20;99.90;;;;;;4177523;28;20106;-62
2022/10/28 07:43:23;;;;;;;15.60;11.93;;;10.30;99.90;;;;;;4177668;28;20174;-63
2022/10/28 07:45:24;;;;;;;28.07;12.57;;;10.10;99.90;;;;;;4178894;28;20079;-64
2022/10/28 07:47:25;;;;;;;23.53;13.03;;;10.00;99.90;;;;;;4176359;28;20063;-66
2022/10/28 07:49:26;;;;;;;19.07;12.37;;;10.00;99.90;;;;;;4176475;28;20565;-63
2022/10/28 07:51:28;;;;;;;19.00;12.03;;;9.80;99.90;;;;;;4176694;28;20063;-63
2022/10/28 07:53:30;;;;;;;16.07;10.47;;;9.60;99.90;;;;;;4176699;28;20069;-62
2022/10/28 07:55:31;;;;;;;15.83;10.70;;;9.70;99.90;;;;;;4159336;28;20041;-64
2022/10/28 07:57:34;;;;;;;16.20;9.93;;;9.90;99.90;;;;;;4177699;28;20378;-61
2022/10/28 07:59:35;;;;;;;18.73;10.30;;;10.00;99.90;;;;;;4175835;28;20041;-61
2022/10/28 08:01:36;;;;;;;15.90;10.37;;;10.10;99.90;;;;;;4177107;28;20094;-62
2022/10/28 08:03:37;;;;;;;13.37;9.17;;;9.90;99.90;;;;;;4175411;28;20138;-61
2022/10/28 08:05:38;;;;;;;17.20;10.07;;;9.90;99.90;;;;;;4173525;28;20903;-63
2022/10/28 08:07:40;;;;;;;19.93;9.90;;;10.10;99.90;;;;;;4165260;28;20042;-65
2022/10/28 08:09:41;;;;;;;15.77;9.23;;;10.30;99.90;;;;;;4166123;28;20427;-62
2022/10/28 08:11:42;;;;;;;16.63;10.70;;;10.50;99.90;;;;;;4177200;28;20634;-62
2022/10/28 08:13:44;;;;;;;13.77;10.03;;;10.80;99.90;;;;;;4176105;28;20048;-63
2022/10/28 08:15:54;;;;;;;14.70;10.10;;;11.00;99.90;;;;;;4177715;28;20083;-63
2022/10/28 08:17:55;;;;;;;20.10;10.65;;;11.00;99.90;;;;;;4158596;28;20075;-62
2022/10/28 08:19:57;;;;;;;14.10;9.33;;;10.80;99.90;;;;;;4177811;28;20025;-63
2022/10/28 08:21:58;;;;;;;16.87;9.77;;;10.90;99.90;;;;;;4177297;28;20052;-63
2022/10/28 08:23:59;;;;;;;16.37;9.67;;;10.80;99.90;;;;;;4178539;28;20087;-62
2022/10/28 08:26:00;;;;;;;13.00;8.97;;;11.10;99.90;;;;;;4176645;28;20053;-64
2022/10/28 08:28:02;;;;;;;15.73;9.90;;;11.00;99.90;;;;;;4178685;28;20371;-65
2022/10/28 08:30:04;;;;;;;15.40;9.60;;;11.20;99.90;;;;;;4177300;28;20465;-63
2022/10/28 08:32:08;;;;;;;19.00;9.83;;;11.10;99.90;;;;;;4178727;28;20094;-63
2022/10/28 08:34:09;;;;;;;16.23;9.77;;;11.10;99.90;;;;;;4159483;28;20118;-63
2022/10/28 08:36:12;;;;;;;18.03;9.77;;;11.00;99.90;;;;;;4176276;28;20044;-64
2022/10/28 08:38:13;;;;;;;20.27;10.80;;;11.00;99.90;;;;;;4176936;28;20504;-67
2022/10/28 08:40:15;;;;;;;19.73;10.93;;;10.80;99.90;;;;;;4176787;28;20036;-65
2022/10/28 08:42:48;;;;;;;21.60;12.97;;;10.80;99.90;;;;;;4177330;28;20045;-65
2022/10/28 08:44:56;;;;;;;16.93;9.23;;;10.80;99.90;;;;;;4176786;28;20041;-66
2022/10/28 08:47:15;;;;;;;17.10;9.93;;;10.90;99.90;;;;;;4176459;28;20564;-65
2022/10/28 08:49:20;;;;;;;16.73;10.03;;;11.10;99.90;;;;;;4176944;28;20025;-66
2022/10/28 08:51:48;;;;;;;15.20;9.83;;;11.50;99.90;;;;;;4176174;28;20094;-66
2022/10/28 08:53:54;;;;;;;18.23;10.63;;;11.50;99.90;;;;;;4177343;28;20048;-64
2022/10/28 08:56:06;;;;;;;16.30;10.57;;;11.50;99.90;;;;;;4174623;28;20110;-64
2022/10/28 08:58:19;;;;;;;14.93;9.07;;;11.50;99.90;;;;;;4176727;28;20037;-66
2022/10/28 09:00:27;;;;;;;16.57;9.37;;;11.70;99.90;;;;;;4174133;28;20029;-64
2022/10/28 09:02:45;;;;;;;14.27;9.67;;;11.80;99.90;;;;;;4176056;28;20021;-63
2022/10/28 09:04:53;;;;;;;16.93;9.33;;;12.00;99.90;;;;;;4174560;28;20029;-65
2022/10/28 09:06:55;;;;;;;18.83;9.60;;;12.20;99.90;;;;;;4175494;28;20083;-64
2022/10/28 09:08:57;;;;;;;20.50;10.00;;;12.20;99.90;;;;;;4175258;28;20037;-65
2022/10/28 09:11:17;;;;;;;13.63;8.97;;;12.30;99.90;;;;;;4176980;28;20047;-66
2022/10/28 09:13:37;;;;;;;13.20;9.30;;;12.30;99.90;;;;;;4175142;28;20091;-64
2022/10/28 09:15:47;;;;;;;18.27;7.97;;;12.40;99.90;;;;;;4176696;28;20509;-63
2022/10/28 09:17:54;;;;;;;14.00;8.23;;;12.60;99.90;;;;;;4159957;28;20037;-65
2022/10/28 09:20:35;;;;;;;14.17;8.10;;;12.70;99.90;;;;;;4173452;28;20427;-64
2022/10/28 09:22:55;;;;;;;10.30;6.87;;;12.70;99.90;;;;;;4160390;28;20114;-65
2022/10/28 09:25:12;;;;;;;11.87;6.83;;;12.60;99.90;;;;;;4176784;28;20370;-63
2022/10/28 09:27:39;;;;;;;12.30;7.17;;;12.50;99.90;;;;;;4175866;28;20484;-64
2022/10/28 09:30:11;;;;;;;10.77;6.63;;;12.50;99.90;;;;;;4149146;28;20632;-64
2022/10/28 09:32:35;;;;;;;9.57;6.03;;;12.40;99.90;;;;;;4164148;28;20036;-63
2022/10/28 09:34:45;;;;;;;9.27;7.03;;;12.50;99.90;;;;;;4162786;28;20111;-62
2022/10/28 09:36:59;;;;;;;14.07;7.07;;;12.50;99.90;;;;;;4174765;28;20040;-62
2022/10/28 09:39:02;;;;;;;9.97;6.60;;;12.60;99.90;;;;;;4176487;28;20021;-63
2022/10/28 09:41:11;;;;;;;9.53;6.90;;;12.70;99.90;;;;;;4177236;28;20082;-63
2022/10/28 09:43:24;;;;;;;10.93;6.87;;;12.80;99.90;;;;;;4175349;28;20566;-63
2022/10/28 09:45:31;;;;;;;11.93;6.53;;;12.80;99.90;;;;;;4177321;28;20025;-64
2022/10/28 09:47:38;;;;;;;9.70;6.87;;;12.80;99.90;;;;;;4175420;28;20087;-63
2022/10/28 09:49:40;;;;;;;7.17;5.63;;;12.80;99.90;;;;;;4177229;28;20092;-64
2022/10/28 09:52:00;;;;;;;8.73;6.77;;;12.70;99.90;;;;;;4176647;28;20021;-63
2022/10/28 09:54:01;;;;;;;10.48;7.10;;;12.70;99.90;;;;;;4177146;28;20040;-64
2022/10/28 09:56:05;;;;;;;18.37;7.30;;;12.60;99.90;;;;;;4175820;28;20083;-63
2022/10/28 09:58:06;;;;;;;11.43;7.77;;;12.80;99.90;;;;;;4176864;28;20170;-64
2022/10/28 10:00:12;;;;;;;10.53;7.27;;;12.90;99.90;;;;;;4176463;28;20032;-62
2022/10/28 10:02:35;;;;;;;9.80;7.03;;;12.90;99.90;;;;;;4176910;28;20051;-63
2022/10/28 10:04:36;;;;;;;12.33;6.63;;;13.00;99.90;;;;;;4176819;28;20025;-63
2022/10/28 10:06:41;;;;;;;12.37;7.40;;;13.00;99.90;;;;;;4176436;28;20057;-63
2022/10/28 10:08:44;;;;;;;8.63;6.77;;;13.00;99.90;;;;;;4176847;28;20471;-64
2022/10/28 10:10:50;;;;;;;11.93;6.87;;;13.10;99.90;;;;;;4176815;28;20435;-63
2022/10/28 10:12:55;;;;;;;9.23;7.37;;;13.10;99.90;;;;;;4177147;28;20029;-62
2022/10/28 10:14:58;;;;;;;14.90;8.23;;;13.10;99.90;;;;;;4176103;28;20033;-64
2022/10/28 10:17:08;;;;;;;10.70;7.60;;;13.20;99.90;;;;;;4179605;28;20033;-62
2022/10/28 10:19:10;;;;;;;13.03;8.10;;;13.30;99.90;;;;;;4178892;28;20029;-63
2022/10/28 10:21:11;;;;;;;13.97;8.20;;;13.30;99.90;;;;;;4179495;28;20029;-63
2022/10/28 10:23:25;;;;;;;11.40;8.87;;;13.40;99.90;;;;;;4178855;28;20107;-63
2022/10/28 10:25:30;;;;;;;10.90;7.47;;;13.30;99.90;;;;;;4179855;28;20092;-63
2022/10/28 10:27:32;;;;;;;11.27;8.60;;;13.30;99.90;;;;;;4178284;28;20087;-64
2022/10/28 10:29:34;;;;;;;19.13;9.37;;;13.40;99.90;;;;;;4180530;28;20037;-62
2022/10/28 10:31:35;;;;;;;14.67;8.90;;;13.40;99.90;;;;;;4179467;28;20095;-64
2022/10/28 10:33:38;;;;;;;13.20;8.30;;;13.30;99.90;;;;;;4179177;28;20512;-62
2022/10/28 10:35:40;;;;;;;11.60;8.53;;;13.30;99.90;;;;;;4179546;28;20032;-63
2022/10/28 10:37:44;;;;;;;14.23;8.83;;;13.40;99.90;;;;;;4180484;28;20037;-63
2022/10/28 10:40:03;;;;;;;12.43;7.80;;;13.40;99.90;;;;;;4178376;28;20126;-63
2022/10/28 10:42:16;;;;;;;12.40;7.80;;;13.50;99.90;;;;;;4179723;28;20037;-63
2022/10/28 10:44:20;;;;;;;11.93;7.70;;;13.60;99.90;;;;;;4178061;28;20493;-63
2022/10/28 10:46:21;;;;;;;13.67;8.23;;;13.70;99.90;;;;;;4179627;28;20111;-64